createdAt,value
2022-11-22T00:01:30.907Z,84.05
2022-11-22T00:04:00.087Z,84.35
2022-11-22T00:06:29.053Z,84.02
2022-11-22T00:08:58.213Z,83.98
2022-11-22T00:11:29.456Z,84.21
2022-11-22T00:14:00.041Z,84.23
2022-11-22T00:16:29.622Z,84.16
2022-11-22T00:19:01.263Z,84.49
2022-11-22T00:21:30.736Z,84.43
2022-11-22T00:24:00.067Z,84.56
2022-11-22T00:26:29.056Z,84.27
2022-11-22T00:28:59.073Z,84.48
2022-11-22T00:31:28.325Z,84.41
2022-11-22T00:33:57.554Z,84.52
2022-11-22T00:36:27.180Z,84.51
2022-11-22T00:38:57.502Z,84.15
2022-11-22T00:41:27.726Z,84.46
2022-11-22T00:43:57.732Z,84.45
2022-11-22T00:46:28.751Z,84.40
2022-11-22T00:48:58.455Z,84.32
2022-11-22T00:51:29.567Z,84.62
2022-11-22T00:53:59.315Z,84.37
2022-11-22T00:56:28.091Z,84.39
2022-11-22T00:58:56.725Z,84.34
2022-11-22T01:01:27.287Z,84.53
2022-11-22T01:03:57.857Z,84.52
2022-11-22T01:06:29.036Z,84.45
2022-11-22T01:09:00.105Z,84.62
2022-11-22T01:11:29.506Z,84.94
2022-11-22T01:14:01.127Z,85.02
2022-11-22T01:16:30.545Z,84.91
2022-11-22T01:18:59.180Z,84.58
2022-11-22T01:21:27.947Z,84.79
2022-11-22T01:23:56.685Z,84.81
2022-11-22T01:26:26.024Z,84.77
2022-11-22T01:28:54.804Z,84.65
2022-11-22T01:31:24.007Z,84.67
2022-11-22T01:33:54.003Z,84.67
2022-11-22T01:36:23.591Z,84.90
2022-11-22T01:38:54.495Z,84.77
2022-11-22T01:41:23.835Z,84.98
2022-11-22T01:43:53.338Z,85.11
2022-11-22T01:46:38.076Z,85.25
2022-11-22T01:49:29.406Z,85.06
2022-11-22T01:52:06.234Z,85.04
2022-11-22T01:54:40.697Z,85.20
2022-11-22T01:57:15.546Z,84.98
2022-11-22T01:59:57.005Z,84.98
2022-11-22T02:02:26.175Z,85.04
2022-11-22T02:04:58.094Z,84.96
2022-11-22T02:07:34.506Z,85.09
2022-11-22T02:10:04.346Z,85.21
2022-11-22T02:12:36.777Z,84.90
2022-11-22T02:15:06.725Z,84.93
2022-11-22T02:17:35.354Z,84.92
2022-11-22T02:20:05.588Z,85.00
2022-11-22T02:22:34.194Z,85.06
2022-11-22T02:25:20.786Z,85.02
2022-11-22T02:27:51.254Z,85.13
2022-11-22T02:30:20.155Z,85.07
2022-11-22T02:32:51.075Z,85.04
2022-11-22T02:35:23.405Z,85.24
2022-11-22T02:37:57.485Z,85.19
2022-11-22T02:40:28.232Z,85.22
2022-11-22T02:43:03.496Z,85.15
2022-11-22T02:45:32.254Z,85.05
2022-11-22T02:48:12.873Z,84.89
2022-11-22T02:50:41.988Z,85.20
2022-11-22T02:53:12.187Z,85.23
2022-11-22T02:55:42.116Z,84.99
2022-11-22T02:58:11.215Z,85.33
2022-11-22T03:00:44.695Z,85.11
2022-11-22T03:03:15.776Z,85.24
2022-11-22T03:05:45.351Z,85.28
2022-11-22T03:08:15.442Z,85.08
2022-11-22T03:10:44.956Z,84.78
2022-11-22T03:13:13.636Z,85.21
2022-11-22T03:15:47.816Z,85.09
2022-11-22T03:18:16.739Z,85.07
2022-11-22T03:20:46.524Z,85.23
2022-11-22T03:23:19.498Z,85.19
2022-11-22T03:25:51.087Z,85.26
2022-11-22T03:28:20.239Z,85.35
2022-11-22T03:30:51.394Z,85.16
2022-11-22T03:33:21.988Z,85.20
2022-11-22T03:35:58.966Z,85.33
2022-11-22T03:38:29.290Z,85.43
2022-11-22T03:40:59.761Z,85.44
2022-11-22T03:44:45.646Z,85.70
2022-11-22T03:47:15.947Z,85.54
2022-11-22T03:49:46.296Z,85.58
2022-11-22T03:52:17.099Z,85.65
2022-11-22T03:54:47.401Z,85.70
2022-11-22T03:57:18.572Z,85.42
2022-11-22T03:59:50.052Z,85.37
2022-11-22T04:02:21.245Z,85.64
2022-11-22T04:04:54.260Z,85.30
2022-11-22T04:07:26.293Z,85.58
2022-11-22T04:09:57.253Z,85.38
2022-11-22T04:12:27.443Z,85.41
2022-11-22T04:15:07.721Z,85.20
2022-11-22T04:17:45.175Z,85.26
2022-11-22T04:20:41.654Z,85.35
2022-11-22T04:23:17.663Z,85.44
2022-11-22T04:25:51.918Z,85.33
2022-11-22T04:28:47.070Z,85.29
2022-11-22T04:31:34.186Z,85.18
2022-11-22T04:34:05.444Z,85.44
2022-11-22T04:36:35.351Z,85.48
2022-11-22T04:39:04.410Z,85.26
2022-11-22T04:41:33.731Z,85.24
2022-11-22T04:44:21.350Z,85.33
2022-11-22T04:46:51.098Z,85.14
2022-11-22T04:49:20.885Z,84.97
2022-11-22T04:52:08.291Z,85.20
2022-11-22T04:54:37.194Z,85.37
2022-11-22T04:57:05.983Z,85.28
2022-11-22T04:59:34.626Z,85.43
2022-11-22T05:02:03.765Z,85.39
2022-11-22T05:04:33.960Z,85.45
2022-11-22T05:07:05.225Z,85.51
2022-11-22T05:09:34.572Z,85.45
2022-11-22T05:12:07.549Z,85.43
2022-11-22T05:14:36.643Z,85.46
2022-11-22T05:17:05.866Z,85.38
2022-11-22T05:19:36.671Z,85.36
2022-11-22T05:22:05.823Z,85.56
2022-11-22T05:24:34.852Z,85.26
2022-11-22T05:27:04.124Z,85.34
2022-11-22T05:29:39.072Z,85.63
2022-11-22T05:32:18.172Z,85.57
2022-11-22T05:34:49.133Z,85.34
2022-11-22T05:37:17.895Z,85.35
2022-11-22T05:39:47.053Z,85.41
2022-11-22T05:42:16.200Z,85.47
2022-11-22T05:44:45.103Z,85.36
2022-11-22T05:47:15.615Z,85.64
2022-11-22T05:49:47.733Z,85.18
2022-11-22T05:52:18.429Z,85.23
2022-11-22T05:54:47.476Z,85.49
2022-11-22T05:57:16.242Z,85.48
2022-11-22T05:59:45.524Z,85.43
2022-11-22T06:02:14.741Z,85.59
2022-11-22T06:04:45.297Z,85.63
2022-11-22T06:07:15.744Z,85.60
2022-11-22T06:09:44.854Z,85.62
2022-11-22T06:12:14.923Z,85.99
2022-11-22T06:14:46.432Z,85.71
2022-11-22T06:17:15.244Z,85.83
2022-11-22T06:19:46.927Z,85.89
2022-11-22T06:22:16.053Z,85.78
2022-11-22T06:24:45.902Z,85.63
2022-11-22T06:27:16.942Z,85.84
2022-11-22T06:29:46.165Z,85.85
2022-11-22T06:32:15.308Z,85.94
2022-11-22T06:34:45.003Z,86.06
2022-11-22T06:37:16.874Z,85.47
2022-11-22T06:39:46.948Z,85.78
2022-11-22T06:42:19.234Z,85.65
2022-11-22T06:44:49.625Z,85.76
2022-11-22T06:47:18.436Z,85.63
2022-11-22T06:49:47.889Z,85.62
2022-11-22T06:52:18.020Z,85.82
2022-11-22T06:54:48.166Z,85.49
2022-11-22T06:57:18.385Z,85.81
2022-11-22T06:59:48.391Z,85.93
2022-11-22T07:02:18.474Z,86.16
2022-11-22T07:05:17.223Z,85.97
2022-11-22T07:07:36.610Z,86.05
2022-11-22T07:10:06.919Z,86.10
2022-11-22T07:12:35.603Z,86.16
2022-11-22T07:15:05.194Z,85.95
2022-11-22T07:17:34.773Z,85.84
2022-11-22T07:20:04.393Z,86.39
2022-11-22T07:22:34.824Z,86.10
2022-11-22T07:25:03.638Z,85.84
2022-11-22T07:27:34.254Z,86.06
2022-11-22T07:30:06.203Z,86.20
2022-11-22T07:32:37.930Z,85.62
2022-11-22T07:35:07.024Z,85.87
2022-11-22T07:37:35.816Z,85.99
2022-11-22T07:40:05.168Z,86.16
2022-11-22T07:42:35.227Z,86.19
2022-11-22T07:45:10.958Z,85.67
2022-11-22T07:47:43.095Z,85.70
2022-11-22T07:50:12.519Z,85.57
2022-11-22T07:52:41.384Z,85.73
2022-11-22T07:55:14.298Z,85.92
2022-11-22T07:57:43.748Z,85.87
2022-11-22T08:00:14.626Z,85.60
2022-11-22T08:02:43.754Z,86.02
2022-11-22T08:05:13.386Z,85.87
2022-11-22T08:07:50.566Z,85.88
2022-11-22T08:10:20.431Z,85.72
2022-11-22T08:12:49.813Z,85.44
2022-11-22T08:15:19.115Z,85.57
2022-11-22T08:17:47.945Z,85.56
2022-11-22T08:20:16.735Z,85.83
2022-11-22T08:22:46.383Z,85.78
2022-11-22T08:25:17.758Z,86.12
2022-11-22T08:27:47.955Z,85.94
2022-11-22T09:13:23.827Z,84.89
2022-11-22T09:20:42.986Z,84.88
2022-11-22T09:30:00.943Z,85.12
2022-11-22T09:32:34.409Z,85.35
2022-11-22T09:36:50.281Z,84.83
2022-11-22T09:44:03.603Z,85.58
2022-11-22T09:47:18.691Z,85.29
2022-11-22T09:50:24.013Z,85.26
2022-11-22T09:53:29.131Z,85.33
2022-11-22T09:56:20.062Z,85.45
2022-11-22T09:59:21.300Z,85.35
2022-11-22T10:02:28.566Z,85.44
2022-11-22T10:05:13.753Z,85.34
2022-11-22T10:07:57.627Z,85.39
2022-11-22T10:11:02.291Z,85.52
2022-11-22T10:14:02.866Z,85.48
2022-11-22T10:17:00.089Z,85.45
2022-11-22T10:19:56.909Z,85.65
2022-11-22T10:25:54.436Z,85.40
2022-11-22T10:29:10.707Z,85.49
2022-11-22T10:32:07.576Z,85.45
2022-11-22T10:35:19.247Z,85.40
2022-11-22T10:38:30.012Z,85.36
2022-11-22T10:41:38.379Z,85.34
2022-11-22T10:51:26.240Z,85.40
2022-11-22T10:54:32.663Z,85.42
2022-11-22T10:57:30.959Z,85.35
2022-11-22T11:00:20.080Z,85.17
2022-11-22T11:03:04.155Z,85.14
2022-11-22T11:10:03.390Z,85.01
2022-11-22T11:12:39.347Z,85.14
2022-11-22T11:15:27.532Z,85.37
2022-11-22T11:18:11.825Z,85.04
2022-11-22T11:20:54.536Z,84.91
2022-11-22T11:23:26.979Z,85.13
2022-11-22T11:26:26.942Z,85.31
2022-11-22T11:29:37.420Z,85.26
2022-11-22T11:32:19.908Z,85.01
2022-11-22T11:35:07.695Z,85.07
2022-11-22T11:37:39.966Z,85.06
2022-11-22T11:40:29.538Z,85.04
2022-11-22T11:43:23.902Z,85.00
2022-11-22T11:46:14.937Z,85.29
2022-11-22T11:48:51.455Z,85.22
2022-11-22T11:51:43.025Z,85.21
2022-11-22T11:54:23.227Z,85.08
2022-11-22T11:57:00.728Z,85.24
2022-11-22T11:59:39.509Z,85.36
2022-11-22T12:02:36.239Z,85.33
2022-11-22T12:05:27.206Z,85.49
2022-11-22T12:22:07.326Z,85.26
2022-11-22T12:25:30.505Z,85.42
2022-11-22T12:27:52.045Z,85.14
2022-11-22T12:30:24.209Z,85.29
2022-11-22T12:33:04.237Z,85.16
2022-11-22T12:35:43.205Z,85.30
2022-11-22T12:38:21.301Z,85.20
2022-11-22T12:40:55.058Z,85.26
2022-11-22T12:44:02.653Z,85.25
2022-11-22T12:46:56.405Z,85.36
2022-11-22T12:49:48.028Z,85.14
2022-11-22T12:52:27.680Z,85.32
2022-11-22T12:59:27.065Z,85.43
2022-11-22T13:02:22.097Z,85.62
2022-11-22T13:09:18.201Z,85.25
2022-11-22T13:11:58.466Z,85.06
2022-11-22T13:14:43.988Z,85.55
2022-11-22T13:17:15.489Z,85.64
2022-11-22T13:20:52.070Z,85.57
2022-11-22T13:23:38.908Z,85.60
2022-11-22T13:26:39.559Z,85.54
2022-11-22T13:29:35.730Z,85.47
2022-11-22T13:32:13.344Z,85.50
2022-11-22T13:35:07.804Z,85.38
2022-11-22T13:37:44.853Z,85.51
2022-11-22T13:40:15.680Z,85.79
2022-11-22T13:42:44.425Z,85.54
2022-11-22T13:45:25.465Z,85.63
2022-11-22T13:47:55.142Z,85.57
2022-11-22T13:50:51.266Z,85.65
2022-11-22T13:54:14.388Z,85.77
2022-11-22T13:57:00.946Z,85.83
2022-11-22T13:59:36.581Z,85.55
2022-11-22T14:02:22.779Z,85.65
2022-11-22T14:04:59.125Z,85.73
2022-11-22T14:07:34.443Z,85.65
2022-11-22T14:10:23.824Z,85.67
2022-11-22T14:13:13.762Z,85.61
2022-11-22T14:15:49.117Z,85.66
2022-11-22T14:18:52.663Z,85.68
2022-11-22T14:21:41.197Z,85.48
2022-11-22T14:24:35.564Z,85.62
2022-11-22T14:27:15.284Z,85.57
2022-11-22T14:30:03.100Z,85.68
2022-11-22T14:32:51.542Z,85.71
2022-11-22T14:36:06.410Z,85.69
2022-11-22T14:38:38.540Z,85.73
2022-11-22T14:41:26.164Z,85.88
2022-11-22T14:44:08.277Z,85.72
2022-11-22T14:46:53.868Z,85.84
2022-11-22T14:49:39.819Z,85.97
2022-11-22T14:52:43.136Z,85.71
2022-11-22T14:55:21.319Z,85.85
2022-11-22T14:58:15.844Z,85.75
2022-11-22T15:00:57.668Z,85.74
2022-11-22T15:09:13.086Z,85.66
2022-11-22T15:09:21.289Z,85.38
2022-11-22T15:10:22.697Z,85.69
2022-11-22T15:13:30.500Z,85.75
2022-11-22T16:01:19.720Z,85.80
2022-11-22T16:03:56.351Z,85.94
2022-11-22T16:06:38.723Z,85.80
2022-11-22T16:09:35.164Z,85.96
2022-11-22T16:12:35.675Z,85.83
2022-11-22T16:15:40.056Z,85.91
2022-11-22T16:18:28.307Z,85.65
2022-11-22T16:21:03.819Z,85.88
2022-11-22T16:23:37.097Z,85.85
2022-11-22T16:26:32.345Z,85.98
2022-11-22T16:29:41.493Z,85.62
2022-11-22T16:32:19.748Z,85.59
2022-11-22T16:34:51.612Z,85.89
2022-11-22T16:37:38.397Z,85.73
2022-11-22T16:40:24.179Z,85.91
2022-11-22T16:43:24.163Z,85.87
2022-11-22T16:45:53.462Z,85.98
2022-11-22T16:48:32.920Z,85.85
2022-11-22T16:51:35.898Z,85.93
2022-11-22T16:54:28.817Z,85.83
2022-11-22T16:57:34.330Z,86.03
2022-11-22T17:01:33.340Z,86.07
2022-11-22T17:04:37.885Z,85.79
2022-11-22T17:07:13.004Z,85.79
2022-11-22T17:09:43.956Z,85.94
2022-11-22T17:12:33.997Z,85.76
2022-11-22T17:15:05.720Z,85.90
2022-11-22T17:17:40.765Z,85.79
2022-11-22T17:20:11.545Z,85.82
2022-11-22T17:22:43.720Z,86.02
2022-11-22T17:25:18.911Z,85.99
2022-11-22T17:27:54.077Z,86.13
2022-11-22T17:30:23.779Z,85.98
2022-11-22T17:32:59.917Z,86.13
2022-11-22T17:35:33.281Z,86.10
2022-11-22T17:38:12.423Z,85.85
2022-11-22T17:40:41.873Z,86.24
2022-11-22T17:43:11.109Z,86.24
2022-11-22T17:45:44.256Z,86.15
2022-11-22T17:48:13.732Z,86.05
2022-11-22T17:50:42.242Z,86.04
2022-11-22T17:53:12.137Z,85.92
2022-11-22T17:56:09.061Z,86.07
2022-11-22T17:58:34.095Z,86.24
2022-11-22T18:01:11.252Z,85.85
2022-11-22T18:03:50.716Z,85.87
2022-11-22T18:06:49.736Z,85.91
2022-11-22T18:09:18.416Z,85.92
2022-11-22T18:11:48.247Z,85.83
2022-11-22T18:14:19.347Z,86.04
2022-11-22T18:16:48.508Z,86.06
2022-11-22T18:19:29.060Z,85.79
2022-11-22T18:42:04.590Z,85.99
2022-11-22T18:48:13.548Z,86.01
2022-11-22T18:50:50.174Z,85.77
2022-11-22T18:53:25.389Z,86.02
2022-11-22T18:56:11.076Z,85.87
2022-11-22T18:58:49.376Z,85.82
2022-11-22T19:01:27.307Z,86.15
2022-11-22T19:04:05.018Z,86.00
2022-11-22T19:06:48.386Z,85.65
2022-11-22T19:09:25.542Z,85.68
2022-11-22T19:12:09.275Z,85.73
2022-11-22T19:18:17.393Z,85.79
2022-11-22T19:21:42.395Z,86.00
2022-11-22T19:24:29.105Z,85.74
2022-11-22T19:27:06.262Z,85.90
2022-11-22T19:29:47.005Z,85.97
2022-11-22T19:32:23.260Z,85.86
2022-11-22T19:34:57.697Z,85.70
2022-11-22T19:37:36.735Z,85.92
2022-11-22T19:40:19.658Z,85.91
2022-11-22T19:43:16.109Z,86.05
2022-11-22T19:46:11.241Z,86.02
2022-11-22T19:49:06.491Z,85.83
2022-11-22T19:51:41.717Z,85.94
2022-11-22T19:54:19.428Z,86.06
2022-11-22T19:56:58.938Z,85.89
2022-11-22T20:00:51.451Z,85.83
2022-11-22T20:03:27.778Z,86.11
2022-11-22T20:06:06.556Z,86.20
2022-11-22T20:08:54.029Z,85.91
2022-11-22T20:14:22.659Z,85.78
2022-11-22T20:20:17.998Z,85.66
2022-11-22T20:23:01.447Z,85.68
2022-11-22T20:25:39.736Z,85.65
2022-11-22T20:29:12.389Z,85.66
2022-11-22T20:32:06.802Z,85.91
2022-11-22T20:38:28.649Z,85.83
2022-11-22T20:41:10.397Z,86.21
2022-11-22T20:43:46.934Z,86.12
2022-11-22T20:46:38.735Z,86.21
2022-11-22T20:49:13.271Z,86.12
2022-11-22T20:52:23.657Z,86.00
2022-11-22T20:55:19.812Z,85.84
2022-11-22T20:58:06.818Z,86.19
2022-11-22T21:00:56.349Z,86.03
2022-11-22T21:03:51.014Z,86.24
2022-11-22T21:06:59.984Z,85.99
2022-11-22T21:09:59.675Z,86.05
2022-11-22T21:12:41.738Z,86.24
2022-11-22T21:15:38.055Z,86.03
2022-11-22T21:18:25.566Z,85.98
2022-11-22T21:21:39.598Z,86.25
2022-11-22T21:24:13.610Z,85.95
2022-11-22T21:26:55.936Z,86.18
2022-11-22T21:29:31.479Z,86.25
2022-11-22T21:32:06.707Z,86.11
2022-11-22T21:34:54.188Z,86.17
2022-11-22T21:37:54.407Z,86.13
2022-11-22T21:40:37.947Z,86.03
2022-11-22T21:43:14.872Z,85.87
2022-11-22T22:02:30.581Z,86.13
2022-11-22T22:05:11.859Z,86.23
2022-11-22T22:07:59.903Z,86.14
